Terminal Aerodrome Forecast
Issued by NWS Wilmington, OH

Current Version | Previous Version | Graphics & Text | Print | Product List | Glossary On
Versions: 1 2 3 4 5 6 7 8 9 10 11 12 13 14 15 16 17 18 19 20 21
000
FTUS41 KILN 120800 AAA
TAFCVG
TAF AMD
KCVG 120856Z 1209/1312 00000KT P6SM SCT150
     FM121500 22008KT P6SM SCT050 BKN120
     FM122100 24008KT P6SM VCSH BKN060
     FM130100 19006KT P6SM BKN100
     FM131000 20012KT P6SM BKN080=

USA.gov is the U.S. government's official web portal to all federal, state and local government web resources and services.